KCGI

Cape Girardeau Regional Airport

Cape Girardeau, Missouri, USA
METAR KCGI 170953Z AUTO 36010KT 10SM OVC019 M12/M16 A3069 RMK AO2 SLP398 T11171156
Observed Flight Rules
Jan-17 @ 09:53 UTC (an hour ago) Marginal Visual Flight Rules
Wind Visibility Clouds
360° at 10 knots 10 miles
  • Overcast at 1,900' AGL
Temperatures Readings
Current -12°C / 10°F
Dewpoint -16°C / 3°F
Humidity 72%
Altimeter 30.69" Hg
Pressure 1039.8 hPa
Elevation 102
METAR KCGI 170953Z AUTO 36010KT 10SM OVC019 M12/M16 A3069 RMK AO2 SLP398 T11171156
Observed Flight Rules
Jan-17 @ 09:53 UTC
(an hour ago)
MVFR
Wind Visibility
360° at 10 knots 10 miles
Clouds
  • Overcast at 1,900' AGL
Temperature Dewpoint
-12°C / 10°F -16°C / 3°F
Humidity Altimeter Pressure
72% 30.69" Hg 1039.8 hPa